DEKT2: Red River, Dekalb, TX

Data processed at Wed May 22 2019 23:50


All information presented herein is the property of the government of the United States of America and may be revised or deleted at any time without prior notice.
Dissemination of this information without the expressed written consent of the Public Affairs Office, Tulsa District U.S. Army Corps of Engineers is strictly prohibited.
These data are gathered electronically and, as presented, have not undergone any form of quality control. These data are not guaranteed to be valid or correct.
Go to home page.
Go to station list.
Go to home page.

Upstream stations:

Downstream station:
Previous Day
Next Day
Current Day
    
SHEF ID:       DEKT2     Red River near De Kalb, TX
STATION TYPE:  
Regulating: Stage =    23.70, Flow =    55781

               PRECIP     STAGE  STAGE(2)  RIV-FLOW  BAT-LOAD
                   in        ft        ft       cfs      volt
              Ccp-Rev   Ccp-Rev   Ccp-Rev   Ccp-Rev   Ccp-Rev
(US/Central)
05/22 00:00      ----     22.76      ----     50719     13.13
05/22 01:00      ----     22.82      ----     51036     13.05
05/22 02:00      ----     22.85      ----     51194     13.05
05/22 03:00      ----     22.86      ----     51247     13.05
05/22 04:00      ----     22.91      ----     51512     13.05
05/22 05:00      ----     22.92      ----     51565     12.97
05/22 06:00      ----     22.93      ----     51618     12.97
05/22 07:00      ----     22.97      ----     51831     12.97
05/22 08:00      ----     22.99      ----     51937     12.97
05/22 09:00      ----     23.02      ----     52097     13.13
05/22 10:00      ----     23.02      ----     52097     13.37
05/22 11:00      ----     23.06      ----     52311     13.44
05/22 12:00      ----     23.05      ----     52257     13.37
05/22 13:00      ----     23.07      ----     52364     13.44
05/22 14:00      ----     23.06      ----     52311     13.44
05/22 15:00      ----     23.05      ----     52257     13.44
05/22 16:00      ----     23.02      ----     52097     13.53
05/22 17:00      ----     23.05      ----     52257     13.44
05/22 18:00      ----     23.06      ----     52311     13.37
05/22 19:00      ----     23.06      ----     52311     13.29
05/22 20:00      ----     23.07      ----     52364     13.21
05/22 21:00      ----     23.04      ----     52204     13.21
05/22 22:00      ----     23.04      ----     52204     13.21
05/22 23:00      ----     23.05      ----     52257     13.13